sensor_id;sensor_type;location;lat;lon;timestamp;P1;durP1;ratioP1;P2;durP2;ratioP2
68886;SDS011;55925;51.764;6.402;2023-06-10T00:01:35;11.07;;;6.70;;
68886;SDS011;55925;51.764;6.402;2023-06-10T00:04:02;10.52;;;6.95;;
68886;SDS011;55925;51.764;6.402;2023-06-10T00:06:29;10.23;;;7.07;;
68886;SDS011;55925;51.764;6.402;2023-06-10T00:09:02;11.63;;;7.80;;
68886;SDS011;55925;51.764;6.402;2023-06-10T00:11:29;13.40;;;7.18;;
68886;SDS011;55925;51.764;6.402;2023-06-10T00:13:55;10.48;;;6.90;;
68886;SDS011;55925;51.764;6.402;2023-06-10T00:16:21;9.45;;;6.45;;
68886;SDS011;55925;51.764;6.402;2023-06-10T00:18:47;10.07;;;6.57;;
68886;SDS011;55925;51.764;6.402;2023-06-10T00:21:13;9.55;;;6.47;;
68886;SDS011;55925;51.764;6.402;2023-06-10T00:23:40;10.70;;;7.05;;
68886;SDS011;55925;51.764;6.402;2023-06-10T00:26:06;10.30;;;6.80;;
68886;SDS011;55925;51.764;6.402;2023-06-10T00:28:33;10.18;;;6.90;;
68886;SDS011;55925;51.764;6.402;2023-06-10T00:30:59;10.52;;;6.88;;
68886;SDS011;55925;51.764;6.402;2023-06-10T00:33:25;12.77;;;6.70;;
68886;SDS011;55925;51.764;6.402;2023-06-10T00:35:51;9.55;;;6.90;;
68886;SDS011;55925;51.764;6.402;2023-06-10T00:38:17;10.50;;;7.03;;
68886;SDS011;55925;51.764;6.402;2023-06-10T00:40:43;11.95;;;7.05;;
68886;SDS011;55925;51.764;6.402;2023-06-10T00:43:09;10.30;;;6.85;;
68886;SDS011;55925;51.764;6.402;2023-06-10T00:45:35;9.45;;;6.97;;
68886;SDS011;55925;51.764;6.402;2023-06-10T00:48:01;10.75;;;6.75;;
68886;SDS011;55925;51.764;6.402;2023-06-10T00:50:27;12.50;;;6.60;;
68886;SDS011;55925;51.764;6.402;2023-06-10T00:52:54;13.40;;;6.75;;
68886;SDS011;55925;51.764;6.402;2023-06-10T00:55:20;11.00;;;6.22;;
68886;SDS011;55925;51.764;6.402;2023-06-10T00:57:46;11.50;;;6.55;;
68886;SDS011;55925;51.764;6.402;2023-06-10T01:00:13;9.15;;;6.68;;
68886;SDS011;55925;51.764;6.402;2023-06-10T01:02:40;10.30;;;6.88;;
68886;SDS011;55925;51.764;6.402;2023-06-10T01:05:06;9.70;;;6.72;;
68886;SDS011;55925;51.764;6.402;2023-06-10T01:12:41;10.50;;;6.78;;
68886;SDS011;55925;51.764;6.402;2023-06-10T01:15:13;12.75;;;6.78;;
68886;SDS011;55925;51.764;6.402;2023-06-10T01:17:56;9.13;;;6.60;;
68886;SDS011;55925;51.764;6.402;2023-06-10T01:20:23;10.70;;;6.40;;
68886;SDS011;55925;51.764;6.402;2023-06-10T01:22:50;10.00;;;6.72;;
68886;SDS011;55925;51.764;6.402;2023-06-10T01:25:19;9.90;;;7.03;;
68886;SDS011;55925;51.764;6.402;2023-06-10T01:27:58;10.43;;;6.47;;
68886;SDS011;55925;51.764;6.402;2023-06-10T01:30:27;9.85;;;6.70;;
68886;SDS011;55925;51.764;6.402;2023-06-10T01:32:55;11.65;;;7.15;;
68886;SDS011;55925;51.764;6.402;2023-06-10T01:35:24;10.57;;;7.22;;
68886;SDS011;55925;51.764;6.402;2023-06-10T01:37:51;11.63;;;6.78;;
68886;SDS011;55925;51.764;6.402;2023-06-10T01:40:18;10.00;;;6.63;;
68886;SDS011;55925;51.764;6.402;2023-06-10T01:42:45;10.05;;;6.53;;
68886;SDS011;55925;51.764;6.402;2023-06-10T01:45:11;11.15;;;6.65;;
68886;SDS011;55925;51.764;6.402;2023-06-10T01:47:37;10.02;;;6.55;;
68886;SDS011;55925;51.764;6.402;2023-06-10T01:50:03;13.05;;;7.55;;
68886;SDS011;55925;51.764;6.402;2023-06-10T01:52:29;10.63;;;6.95;;
68886;SDS011;55925;51.764;6.402;2023-06-10T01:55:03;10.00;;;6.35;;
68886;SDS011;55925;51.764;6.402;2023-06-10T01:57:29;12.80;;;7.03;;
68886;SDS011;55925;51.764;6.402;2023-06-10T01:59:55;10.50;;;7.00;;
68886;SDS011;55925;51.764;6.402;2023-06-10T02:02:21;10.85;;;6.28;;
68886;SDS011;55925;51.764;6.402;2023-06-10T02:04:47;10.82;;;6.88;;
68886;SDS011;55925;51.764;6.402;2023-06-10T02:07:13;12.45;;;7.40;;
68886;SDS011;55925;51.764;6.402;2023-06-10T02:09:39;11.10;;;6.32;;
68886;SDS011;55925;51.764;6.402;2023-06-10T02:12:05;13.32;;;6.88;;
68886;SDS011;55925;51.764;6.402;2023-06-10T02:14:32;11.48;;;6.70;;
68886;SDS011;55925;51.764;6.402;2023-06-10T02:16:58;11.43;;;6.75;;
68886;SDS011;55925;51.764;6.402;2023-06-10T02:19:24;13.30;;;6.32;;
68886;SDS011;55925;51.764;6.402;2023-06-10T02:21:51;12.02;;;7.18;;
68886;SDS011;55925;51.764;6.402;2023-06-10T02:24:17;10.18;;;6.30;;
68886;SDS011;55925;51.764;6.402;2023-06-10T02:26:43;9.65;;;6.07;;
68886;SDS011;55925;51.764;6.402;2023-06-10T02:29:10;11.00;;;6.07;;
68886;SDS011;55925;51.764;6.402;2023-06-10T02:31:36;14.38;;;6.40;;
68886;SDS011;55925;51.764;6.402;2023-06-10T02:34:02;12.10;;;6.38;;
68886;SDS011;55925;51.764;6.402;2023-06-10T02:36:29;10.55;;;6.50;;
68886;SDS011;55925;51.764;6.402;2023-06-10T02:38:54;10.88;;;6.18;;
68886;SDS011;55925;51.764;6.402;2023-06-10T02:41:21;13.40;;;6.07;;
68886;SDS011;55925;51.764;6.402;2023-06-10T02:43:47;10.63;;;6.05;;
68886;SDS011;55925;51.764;6.402;2023-06-10T02:46:13;11.13;;;6.22;;
68886;SDS011;55925;51.764;6.402;2023-06-10T02:48:42;11.00;;;6.57;;
68886;SDS011;55925;51.764;6.402;2023-06-10T02:51:09;8.85;;;5.60;;
68886;SDS011;55925;51.764;6.402;2023-06-10T02:53:35;9.38;;;6.03;;
68886;SDS011;55925;51.764;6.402;2023-06-10T02:56:01;9.85;;;6.03;;
68886;SDS011;55925;51.764;6.402;2023-06-10T02:58:28;11.15;;;6.45;;
68886;SDS011;55925;51.764;6.402;2023-06-10T03:00:54;10.55;;;6.68;;
68886;SDS011;55925;51.764;6.402;2023-06-10T03:03:20;10.60;;;5.82;;
68886;SDS011;55925;51.764;6.402;2023-06-10T03:05:47;9.63;;;6.30;;
68886;SDS011;55925;51.764;6.402;2023-06-10T03:08:13;10.95;;;5.97;;
68886;SDS011;55925;51.764;6.402;2023-06-10T03:10:39;14.35;;;6.25;;
68886;SDS011;55925;51.764;6.402;2023-06-10T03:13:05;12.35;;;6.13;;
68886;SDS011;55925;51.764;6.402;2023-06-10T03:15:31;11.40;;;5.90;;
68886;SDS011;55925;51.764;6.402;2023-06-10T03:17:59;11.05;;;5.88;;
68886;SDS011;55925;51.764;6.402;2023-06-10T03:20:25;11.40;;;6.07;;
68886;SDS011;55925;51.764;6.402;2023-06-10T03:22:52;10.40;;;6.18;;
68886;SDS011;55925;51.764;6.402;2023-06-10T03:25:18;11.20;;;6.00;;
68886;SDS011;55925;51.764;6.402;2023-06-10T03:27:45;11.07;;;6.10;;
68886;SDS011;55925;51.764;6.402;2023-06-10T03:30:12;11.32;;;5.90;;
68886;SDS011;55925;51.764;6.402;2023-06-10T03:32:38;12.88;;;6.65;;
68886;SDS011;55925;51.764;6.402;2023-06-10T03:35:06;11.77;;;6.05;;
68886;SDS011;55925;51.764;6.402;2023-06-10T03:37:32;11.63;;;6.53;;
68886;SDS011;55925;51.764;6.402;2023-06-10T03:39:58;12.73;;;6.28;;
68886;SDS011;55925;51.764;6.402;2023-06-10T03:42:24;13.25;;;6.07;;
68886;SDS011;55925;51.764;6.402;2023-06-10T03:44:50;11.25;;;5.95;;
68886;SDS011;55925;51.764;6.402;2023-06-10T03:47:16;13.15;;;6.28;;
68886;SDS011;55925;51.764;6.402;2023-06-10T03:49:42;11.52;;;6.05;;
68886;SDS011;55925;51.764;6.402;2023-06-10T03:52:08;13.13;;;6.32;;
68886;SDS011;55925;51.764;6.402;2023-06-10T03:54:34;11.48;;;5.68;;
68886;SDS011;55925;51.764;6.402;2023-06-10T03:57:00;12.13;;;5.82;;
68886;SDS011;55925;51.764;6.402;2023-06-10T03:59:27;9.93;;;5.60;;
68886;SDS011;55925;51.764;6.402;2023-06-10T04:01:54;11.40;;;6.13;;
68886;SDS011;55925;51.764;6.402;2023-06-10T04:04:19;13.60;;;6.45;;
68886;SDS011;55925;51.764;6.402;2023-06-10T04:06:45;10.75;;;6.20;;
68886;SDS011;55925;51.764;6.402;2023-06-10T04:09:12;9.52;;;5.40;;
68886;SDS011;55925;51.764;6.402;2023-06-10T04:11:38;11.52;;;5.40;;
68886;SDS011;55925;51.764;6.402;2023-06-10T04:14:04;10.68;;;5.78;;
68886;SDS011;55925;51.764;6.402;2023-06-10T04:16:30;10.27;;;5.63;;
68886;SDS011;55925;51.764;6.402;2023-06-10T04:18:58;12.30;;;5.70;;
68886;SDS011;55925;51.764;6.402;2023-06-10T04:21:24;13.48;;;6.13;;
68886;SDS011;55925;51.764;6.402;2023-06-10T04:23:50;11.23;;;5.25;;
68886;SDS011;55925;51.764;6.402;2023-06-10T04:26:16;9.93;;;5.25;;
68886;SDS011;55925;51.764;6.402;2023-06-10T04:28:43;11.68;;;6.03;;
68886;SDS011;55925;51.764;6.402;2023-06-10T04:31:09;10.48;;;4.93;;
68886;SDS011;55925;51.764;6.402;2023-06-10T04:33:35;12.95;;;5.40;;
68886;SDS011;55925;51.764;6.402;2023-06-10T04:36:01;10.20;;;5.53;;
68886;SDS011;55925;51.764;6.402;2023-06-10T04:38:27;11.30;;;5.68;;
68886;SDS011;55925;51.764;6.402;2023-06-10T04:40:53;10.63;;;5.40;;
68886;SDS011;55925;51.764;6.402;2023-06-10T04:43:19;11.35;;;5.78;;
68886;SDS011;55925;51.764;6.402;2023-06-10T04:45:45;10.07;;;5.43;;
68886;SDS011;55925;51.764;6.402;2023-06-10T04:48:12;8.88;;;5.30;;
68886;SDS011;55925;51.764;6.402;2023-06-10T04:50:38;10.80;;;5.75;;
68886;SDS011;55925;51.764;6.402;2023-06-10T04:53:04;9.65;;;5.40;;
68886;SDS011;55925;51.764;6.402;2023-06-10T04:55:34;11.68;;;5.72;;
68886;SDS011;55925;51.764;6.402;2023-06-10T04:58:01;10.30;;;4.90;;
68886;SDS011;55925;51.764;6.402;2023-06-10T05:00:27;11.10;;;5.25;;
68886;SDS011;55925;51.764;6.402;2023-06-10T05:02:53;8.73;;;5.45;;
68886;SDS011;55925;51.764;6.402;2023-06-10T05:05:21;10.65;;;5.45;;
68886;SDS011;55925;51.764;6.402;2023-06-10T05:07:47;9.68;;;5.55;;
68886;SDS011;55925;51.764;6.402;2023-06-10T05:10:13;10.13;;;5.30;;
68886;SDS011;55925;51.764;6.402;2023-06-10T05:12:39;12.85;;;5.30;;
68886;SDS011;55925;51.764;6.402;2023-06-10T05:15:06;10.05;;;5.43;;
68886;SDS011;55925;51.764;6.402;2023-06-10T05:17:32;11.25;;;5.53;;
68886;SDS011;55925;51.764;6.402;2023-06-10T05:19:59;8.95;;;4.80;;
68886;SDS011;55925;51.764;6.402;2023-06-10T05:22:25;10.05;;;5.05;;
68886;SDS011;55925;51.764;6.402;2023-06-10T05:24:52;12.23;;;5.32;;
68886;SDS011;55925;51.764;6.402;2023-06-10T05:27:18;10.32;;;5.03;;
68886;SDS011;55925;51.764;6.402;2023-06-10T05:29:44;9.07;;;4.70;;
68886;SDS011;55925;51.764;6.402;2023-06-10T05:32:11;8.98;;;5.03;;
68886;SDS011;55925;51.764;6.402;2023-06-10T05:34:37;9.90;;;4.93;;
68886;SDS011;55925;51.764;6.402;2023-06-10T05:37:03;13.38;;;5.43;;
68886;SDS011;55925;51.764;6.402;2023-06-10T05:39:29;9.52;;;4.88;;
68886;SDS011;55925;51.764;6.402;2023-06-10T05:41:56;9.27;;;5.43;;
68886;SDS011;55925;51.764;6.402;2023-06-10T05:44:23;8.70;;;4.53;;
68886;SDS011;55925;51.764;6.402;2023-06-10T05:46:50;11.18;;;5.57;;
68886;SDS011;55925;51.764;6.402;2023-06-10T05:49:16;10.93;;;4.88;;
68886;SDS011;55925;51.764;6.402;2023-06-10T05:51:42;12.52;;;5.57;;
68886;SDS011;55925;51.764;6.402;2023-06-10T05:54:08;9.73;;;4.75;;
68886;SDS011;55925;51.764;6.402;2023-06-10T05:56:34;10.65;;;5.05;;
68886;SDS011;55925;51.764;6.402;2023-06-10T05:59:00;10.32;;;5.00;;
68886;SDS011;55925;51.764;6.402;2023-06-10T06:01:26;10.38;;;4.80;;
68886;SDS011;55925;51.764;6.402;2023-06-10T06:03:52;9.95;;;4.45;;
68886;SDS011;55925;51.764;6.402;2023-06-10T06:06:18;8.05;;;4.70;;
68886;SDS011;55925;51.764;6.402;2023-06-10T06:08:45;9.18;;;4.72;;
68886;SDS011;55925;51.764;6.402;2023-06-10T06:11:11;10.88;;;4.53;;
68886;SDS011;55925;51.764;6.402;2023-06-10T06:13:38;9.77;;;4.95;;
68886;SDS011;55925;51.764;6.402;2023-06-10T06:16:04;9.38;;;4.82;;
68886;SDS011;55925;51.764;6.402;2023-06-10T06:18:30;8.07;;;4.88;;
68886;SDS011;55925;51.764;6.402;2023-06-10T06:20:56;9.68;;;4.88;;
68886;SDS011;55925;51.764;6.402;2023-06-10T06:23:23;9.18;;;4.50;;
68886;SDS011;55925;51.764;6.402;2023-06-10T06:25:48;11.13;;;5.32;;
68886;SDS011;55925;51.764;6.402;2023-06-10T06:28:14;10.38;;;4.97;;
68886;SDS011;55925;51.764;6.402;2023-06-10T06:30:41;9.85;;;4.60;;
68886;SDS011;55925;51.764;6.402;2023-06-10T06:33:07;9.65;;;4.75;;
68886;SDS011;55925;51.764;6.402;2023-06-10T06:35:33;8.32;;;4.70;;
68886;SDS011;55925;51.764;6.402;2023-06-10T06:37:59;8.73;;;4.60;;
68886;SDS011;55925;51.764;6.402;2023-06-10T06:40:25;9.07;;;4.60;;
68886;SDS011;55925;51.764;6.402;2023-06-10T06:42:51;8.13;;;4.43;;
68886;SDS011;55925;51.764;6.402;2023-06-10T06:45:17;9.30;;;4.75;;
68886;SDS011;55925;51.764;6.402;2023-06-10T06:47:44;9.23;;;4.63;;
68886;SDS011;55925;51.764;6.402;2023-06-10T06:50:10;9.80;;;4.43;;
68886;SDS011;55925;51.764;6.402;2023-06-10T06:52:36;8.88;;;4.28;;
68886;SDS011;55925;51.764;6.402;2023-06-10T06:55:02;9.07;;;4.20;;
68886;SDS011;55925;51.764;6.402;2023-06-10T06:57:28;9.75;;;4.82;;
68886;SDS011;55925;51.764;6.402;2023-06-10T06:59:54;8.95;;;4.03;;
68886;SDS011;55925;51.764;6.402;2023-06-10T07:02:20;9.63;;;4.88;;
68886;SDS011;55925;51.764;6.402;2023-06-10T07:04:46;9.38;;;4.90;;
68886;SDS011;55925;51.764;6.402;2023-06-10T07:07:14;11.52;;;4.63;;
68886;SDS011;55925;51.764;6.402;2023-06-10T07:09:40;9.60;;;4.63;;
68886;SDS011;55925;51.764;6.402;2023-06-10T07:12:06;10.13;;;3.97;;
68886;SDS011;55925;51.764;6.402;2023-06-10T07:14:32;7.93;;;4.30;;
68886;SDS011;55925;51.764;6.402;2023-06-10T07:16:58;8.60;;;4.28;;
68886;SDS011;55925;51.764;6.402;2023-06-10T07:19:25;11.02;;;4.70;;
68886;SDS011;55925;51.764;6.402;2023-06-10T07:21:51;11.23;;;4.70;;
68886;SDS011;55925;51.764;6.402;2023-06-10T07:24:17;9.00;;;4.47;;
68886;SDS011;55925;51.764;6.402;2023-06-10T07:26:45;6.53;;;3.75;;
68886;SDS011;55925;51.764;6.402;2023-06-10T07:29:11;8.73;;;4.32;;
68886;SDS011;55925;51.764;6.402;2023-06-10T07:31:37;9.20;;;4.20;;
68886;SDS011;55925;51.764;6.402;2023-06-10T07:34:03;10.23;;;4.43;;
68886;SDS011;55925;51.764;6.402;2023-06-10T07:36:29;7.82;;;4.53;;
68886;SDS011;55925;51.764;6.402;2023-06-10T07:38:55;8.57;;;4.28;;
68886;SDS011;55925;51.764;6.402;2023-06-10T07:41:23;8.95;;;4.57;;
68886;SDS011;55925;51.764;6.402;2023-06-10T07:43:50;10.45;;;4.47;;
68886;SDS011;55925;51.764;6.402;2023-06-10T07:46:19;10.82;;;4.32;;
68886;SDS011;55925;51.764;6.402;2023-06-10T07:48:45;9.30;;;4.60;;
68886;SDS011;55925;51.764;6.402;2023-06-10T07:51:11;8.65;;;4.00;;
68886;SDS011;55925;51.764;6.402;2023-06-10T07:53:37;8.27;;;4.00;;
68886;SDS011;55925;51.764;6.402;2023-06-10T07:56:03;10.43;;;4.30;;
68886;SDS011;55925;51.764;6.402;2023-06-10T07:58:29;7.07;;;4.10;;
68886;SDS011;55925;51.764;6.402;2023-06-10T08:00:55;9.07;;;4.10;;
68886;SDS011;55925;51.764;6.402;2023-06-10T08:03:21;9.73;;;4.40;;
68886;SDS011;55925;51.764;6.402;2023-06-10T08:05:47;7.70;;;4.20;;
68886;SDS011;55925;51.764;6.402;2023-06-10T08:08:13;7.20;;;3.95;;
68886;SDS011;55925;51.764;6.402;2023-06-10T08:10:39;9.18;;;4.60;;
68886;SDS011;55925;51.764;6.402;2023-06-10T08:13:05;8.77;;;4.20;;
68886;SDS011;55925;51.764;6.402;2023-06-10T08:15:32;9.18;;;4.45;;
68886;SDS011;55925;51.764;6.402;2023-06-10T08:17:58;8.80;;;4.15;;
68886;SDS011;55925;51.764;6.402;2023-06-10T08:20:24;8.63;;;3.92;;
68886;SDS011;55925;51.764;6.402;2023-06-10T08:22:50;6.75;;;3.70;;
68886;SDS011;55925;51.764;6.402;2023-06-10T08:25:16;8.38;;;4.00;;
68886;SDS011;55925;51.764;6.402;2023-06-10T08:27:42;8.30;;;3.95;;
68886;SDS011;55925;51.764;6.402;2023-06-10T08:30:08;8.95;;;4.13;;
68886;SDS011;55925;51.764;6.402;2023-06-10T08:32:35;8.13;;;4.30;;
68886;SDS011;55925;51.764;6.402;2023-06-10T08:35:02;6.75;;;3.63;;
68886;SDS011;55925;51.764;6.402;2023-06-10T08:37:28;6.82;;;4.05;;
68886;SDS011;55925;51.764;6.402;2023-06-10T08:39:54;9.00;;;4.57;;
68886;SDS011;55925;51.764;6.402;2023-06-10T08:42:33;8.63;;;4.18;;
68886;SDS011;55925;51.764;6.402;2023-06-10T08:45:02;9.32;;;4.35;;
68886;SDS011;55925;51.764;6.402;2023-06-10T08:47:29;7.43;;;4.32;;
68886;SDS011;55925;51.764;6.402;2023-06-10T08:50:01;9.88;;;4.53;;
68886;SDS011;55925;51.764;6.402;2023-06-10T08:52:29;8.27;;;4.35;;
68886;SDS011;55925;51.764;6.402;2023-06-10T08:55:03;11.23;;;4.30;;
68886;SDS011;55925;51.764;6.402;2023-06-10T08:57:30;9.75;;;4.82;;
68886;SDS011;55925;51.764;6.402;2023-06-10T08:59:57;8.55;;;4.50;;
68886;SDS011;55925;51.764;6.402;2023-06-10T09:02:26;8.65;;;4.35;;
68886;SDS011;55925;51.764;6.402;2023-06-10T09:04:52;10.68;;;4.13;;
68886;SDS011;55925;51.764;6.402;2023-06-10T09:07:19;7.60;;;4.25;;
68886;SDS011;55925;51.764;6.402;2023-06-10T09:09:45;8.10;;;4.30;;
68886;SDS011;55925;51.764;6.402;2023-06-10T09:12:13;6.55;;;4.00;;
68886;SDS011;55925;51.764;6.402;2023-06-10T09:14:39;7.22;;;4.43;;
68886;SDS011;55925;51.764;6.402;2023-06-10T09:17:05;10.68;;;4.72;;
68886;SDS011;55925;51.764;6.402;2023-06-10T09:19:32;8.93;;;4.55;;
68886;SDS011;55925;51.764;6.402;2023-06-10T09:21:58;8.50;;;4.75;;
68886;SDS011;55925;51.764;6.402;2023-06-10T09:24:24;8.02;;;4.38;;
68886;SDS011;55925;51.764;6.402;2023-06-10T09:26:54;7.75;;;4.45;;
68886;SDS011;55925;51.764;6.402;2023-06-10T09:29:27;9.82;;;4.60;;
68886;SDS011;55925;51.764;6.402;2023-06-10T09:31:53;7.65;;;4.20;;
68886;SDS011;55925;51.764;6.402;2023-06-10T09:34:20;8.40;;;4.13;;
68886;SDS011;55925;51.764;6.402;2023-06-10T09:36:46;7.43;;;4.10;;
68886;SDS011;55925;51.764;6.402;2023-06-10T09:39:15;8.90;;;4.47;;
68886;SDS011;55925;51.764;6.402;2023-06-10T09:41:42;8.35;;;4.18;;
68886;SDS011;55925;51.764;6.402;2023-06-10T09:44:12;7.03;;;4.20;;
68886;SDS011;55925;51.764;6.402;2023-06-10T09:46:39;7.22;;;4.20;;
68886;SDS011;55925;51.764;6.402;2023-06-10T09:49:05;8.32;;;4.20;;
68886;SDS011;55925;51.764;6.402;2023-06-10T09:51:31;8.57;;;4.85;;
68886;SDS011;55925;51.764;6.402;2023-06-10T09:53:57;9.75;;;4.40;;
68886;SDS011;55925;51.764;6.402;2023-06-10T09:56:34;7.70;;;4.70;;
68886;SDS011;55925;51.764;6.402;2023-06-10T09:59:00;7.65;;;4.22;;
68886;SDS011;55925;51.764;6.402;2023-06-10T10:01:27;8.35;;;4.90;;
68886;SDS011;55925;51.764;6.402;2023-06-10T10:03:53;7.25;;;4.05;;
68886;SDS011;55925;51.764;6.402;2023-06-10T10:06:20;6.90;;;4.22;;
68886;SDS011;55925;51.764;6.402;2023-06-10T10:08:47;7.30;;;4.40;;
68886;SDS011;55925;51.764;6.402;2023-06-10T10:11:14;8.35;;;4.45;;
68886;SDS011;55925;51.764;6.402;2023-06-10T10:13:42;10.43;;;4.68;;
68886;SDS011;55925;51.764;6.402;2023-06-10T10:16:14;9.18;;;4.90;;
68886;SDS011;55925;51.764;6.402;2023-06-10T10:18:41;7.30;;;4.43;;
68886;SDS011;55925;51.764;6.402;2023-06-10T10:21:11;8.23;;;4.82;;
68886;SDS011;55925;51.764;6.402;2023-06-10T10:23:44;8.40;;;5.00;;
68886;SDS011;55925;51.764;6.402;2023-06-10T10:26:14;12.18;;;4.68;;
68886;SDS011;55925;51.764;6.402;2023-06-10T10:28:45;7.95;;;4.68;;
68886;SDS011;55925;51.764;6.402;2023-06-10T10:31:11;7.00;;;4.70;;
68886;SDS011;55925;51.764;6.402;2023-06-10T10:36:06;10.00;;;4.95;;
68886;SDS011;55925;51.764;6.402;2023-06-10T10:38:32;9.23;;;5.18;;
68886;SDS011;55925;51.764;6.402;2023-06-10T10:40:59;8.00;;;5.00;;
68886;SDS011;55925;51.764;6.402;2023-06-10T10:43:26;6.80;;;4.45;;
68886;SDS011;55925;51.764;6.402;2023-06-10T10:45:59;8.73;;;4.70;;
68886;SDS011;55925;51.764;6.402;2023-06-10T10:48:25;8.57;;;5.30;;
68886;SDS011;55925;51.764;6.402;2023-06-10T10:50:57;9.35;;;4.78;;
68886;SDS011;55925;51.764;6.402;2023-06-10T10:53:24;9.65;;;5.18;;
68886;SDS011;55925;51.764;6.402;2023-06-10T10:55:59;8.82;;;4.68;;
68886;SDS011;55925;51.764;6.402;2023-06-10T10:58:26;7.28;;;4.93;;
68886;SDS011;55925;51.764;6.402;2023-06-10T11:00:52;7.05;;;4.13;;
68886;SDS011;55925;51.764;6.402;2023-06-10T11:03:18;8.07;;;4.82;;
68886;SDS011;55925;51.764;6.402;2023-06-10T11:05:44;10.65;;;4.88;;
68886;SDS011;55925;51.764;6.402;2023-06-10T11:08:14;7.05;;;4.63;;
68886;SDS011;55925;51.764;6.402;2023-06-10T11:10:40;7.65;;;4.63;;
68886;SDS011;55925;51.764;6.402;2023-06-10T11:13:08;14.20;;;4.63;;
68886;SDS011;55925;51.764;6.402;2023-06-10T11:15:37;7.43;;;4.47;;
68886;SDS011;55925;51.764;6.402;2023-06-10T11:18:14;7.57;;;4.60;;
68886;SDS011;55925;51.764;6.402;2023-06-10T11:23:26;7.80;;;5.03;;
68886;SDS011;55925;51.764;6.402;2023-06-10T11:28:40;7.88;;;4.82;;
68886;SDS011;55925;51.764;6.402;2023-06-10T11:31:06;9.05;;;4.75;;
68886;SDS011;55925;51.764;6.402;2023-06-10T11:33:32;8.85;;;4.95;;
68886;SDS011;55925;51.764;6.402;2023-06-10T11:35:58;8.63;;;5.35;;
68886;SDS011;55925;51.764;6.402;2023-06-10T11:38:25;7.93;;;4.38;;
68886;SDS011;55925;51.764;6.402;2023-06-10T11:40:51;8.20;;;5.03;;
68886;SDS011;55925;51.764;6.402;2023-06-10T11:43:17;7.70;;;4.45;;
68886;SDS011;55925;51.764;6.402;2023-06-10T11:45:44;7.90;;;4.75;;
68886;SDS011;55925;51.764;6.402;2023-06-10T11:48:10;8.45;;;4.68;;
68886;SDS011;55925;51.764;6.402;2023-06-10T11:50:36;7.40;;;4.82;;
68886;SDS011;55925;51.764;6.402;2023-06-10T11:53:03;7.88;;;4.40;;
68886;SDS011;55925;51.764;6.402;2023-06-10T11:55:41;10.52;;;5.03;;
68886;SDS011;55925;51.764;6.402;2023-06-10T12:01:01;7.88;;;4.88;;
68886;SDS011;55925;51.764;6.402;2023-06-10T12:03:28;7.88;;;4.95;;
68886;SDS011;55925;51.764;6.402;2023-06-10T12:06:03;8.32;;;4.90;;
68886;SDS011;55925;51.764;6.402;2023-06-10T12:08:29;7.50;;;5.18;;
68886;SDS011;55925;51.764;6.402;2023-06-10T12:10:56;10.02;;;5.22;;
68886;SDS011;55925;51.764;6.402;2023-06-10T12:13:22;9.23;;;4.57;;
68886;SDS011;55925;51.764;6.402;2023-06-10T12:15:51;7.72;;;4.85;;
68886;SDS011;55925;51.764;6.402;2023-06-10T12:18:18;8.23;;;4.80;;
68886;SDS011;55925;51.764;6.402;2023-06-10T12:20:44;8.25;;;4.97;;
68886;SDS011;55925;51.764;6.402;2023-06-10T12:23:11;7.32;;;4.78;;
68886;SDS011;55925;51.764;6.402;2023-06-10T12:25:37;7.78;;;5.22;;
68886;SDS011;55925;51.764;6.402;2023-06-10T12:28:03;8.02;;;4.60;;
68886;SDS011;55925;51.764;6.402;2023-06-10T12:30:31;7.85;;;4.38;;
68886;SDS011;55925;51.764;6.402;2023-06-10T12:32:57;7.85;;;5.18;;
68886;SDS011;55925;51.764;6.402;2023-06-10T12:35:27;7.28;;;4.82;;
68886;SDS011;55925;51.764;6.402;2023-06-10T12:40:30;8.85;;;5.10;;
68886;SDS011;55925;51.764;6.402;2023-06-10T12:42:57;9.27;;;4.53;;
68886;SDS011;55925;51.764;6.402;2023-06-10T12:45:30;8.40;;;4.97;;
68886;SDS011;55925;51.764;6.402;2023-06-10T12:50:34;7.97;;;5.40;;
68886;SDS011;55925;51.764;6.402;2023-06-10T12:53:02;7.68;;;5.40;;
68886;SDS011;55925;51.764;6.402;2023-06-10T12:55:28;11.88;;;4.75;;
68886;SDS011;55925;51.764;6.402;2023-06-10T12:57:54;7.90;;;4.97;;
68886;SDS011;55925;51.764;6.402;2023-06-10T13:00:21;8.50;;;4.93;;
68886;SDS011;55925;51.764;6.402;2023-06-10T13:02:50;9.27;;;5.43;;
68886;SDS011;55925;51.764;6.402;2023-06-10T13:05:16;8.20;;;4.60;;
68886;SDS011;55925;51.764;6.402;2023-06-10T13:07:43;9.00;;;4.97;;
68886;SDS011;55925;51.764;6.402;2023-06-10T13:10:09;11.35;;;5.13;;
68886;SDS011;55925;51.764;6.402;2023-06-10T13:12:35;7.10;;;4.50;;
68886;SDS011;55925;51.764;6.402;2023-06-10T13:15:02;8.60;;;5.13;;
68886;SDS011;55925;51.764;6.402;2023-06-10T13:17:28;8.30;;;4.47;;
68886;SDS011;55925;51.764;6.402;2023-06-10T13:19:54;10.88;;;4.82;;
68886;SDS011;55925;51.764;6.402;2023-06-10T13:22:20;8.07;;;5.07;;
68886;SDS011;55925;51.764;6.402;2023-06-10T13:24:46;7.40;;;4.72;;
68886;SDS011;55925;51.764;6.402;2023-06-10T13:27:12;8.23;;;4.40;;
68886;SDS011;55925;51.764;6.402;2023-06-10T13:29:41;7.35;;;4.80;;
68886;SDS011;55925;51.764;6.402;2023-06-10T13:32:07;6.25;;;4.40;;
68886;SDS011;55925;51.764;6.402;2023-06-10T13:34:33;7.47;;;4.93;;
68886;SDS011;55925;51.764;6.402;2023-06-10T13:37:01;8.10;;;4.97;;
68886;SDS011;55925;51.764;6.402;2023-06-10T13:39:29;8.68;;;5.35;;
68886;SDS011;55925;51.764;6.402;2023-06-10T13:41:55;8.10;;;4.82;;
68886;SDS011;55925;51.764;6.402;2023-06-10T13:44:20;9.18;;;5.28;;
68886;SDS011;55925;51.764;6.402;2023-06-10T13:46:46;7.70;;;4.78;;
68886;SDS011;55925;51.764;6.402;2023-06-10T13:49:12;6.90;;;5.00;;
68886;SDS011;55925;51.764;6.402;2023-06-10T13:51:39;13.32;;;4.88;;
68886;SDS011;55925;51.764;6.402;2023-06-10T13:54:05;7.95;;;5.95;;
68886;SDS011;55925;51.764;6.402;2023-06-10T13:56:31;7.97;;;4.45;;
68886;SDS011;55925;51.764;6.402;2023-06-10T13:58:59;9.98;;;5.25;;
68886;SDS011;55925;51.764;6.402;2023-06-10T14:01:25;6.68;;;5.07;;
68886;SDS011;55925;51.764;6.402;2023-06-10T14:03:51;7.47;;;5.18;;
68886;SDS011;55925;51.764;6.402;2023-06-10T14:06:17;8.57;;;5.47;;
68886;SDS011;55925;51.764;6.402;2023-06-10T14:08:44;8.40;;;4.90;;
68886;SDS011;55925;51.764;6.402;2023-06-10T14:11:10;7.78;;;4.72;;
68886;SDS011;55925;51.764;6.402;2023-06-10T14:13:36;8.32;;;5.35;;
68886;SDS011;55925;51.764;6.402;2023-06-10T14:16:03;8.18;;;5.28;;
68886;SDS011;55925;51.764;6.402;2023-06-10T14:18:30;7.25;;;5.00;;
68886;SDS011;55925;51.764;6.402;2023-06-10T14:20:56;7.93;;;5.20;;
68886;SDS011;55925;51.764;6.402;2023-06-10T14:23:22;7.53;;;4.82;;
68886;SDS011;55925;51.764;6.402;2023-06-10T14:25:49;8.90;;;5.15;;
68886;SDS011;55925;51.764;6.402;2023-06-10T14:28:15;7.60;;;5.07;;
68886;SDS011;55925;51.764;6.402;2023-06-10T14:30:41;8.63;;;5.10;;
68886;SDS011;55925;51.764;6.402;2023-06-10T14:33:07;8.27;;;4.72;;
68886;SDS011;55925;51.764;6.402;2023-06-10T14:35:33;8.45;;;5.15;;
68886;SDS011;55925;51.764;6.402;2023-06-10T14:37:59;7.18;;;4.90;;
68886;SDS011;55925;51.764;6.402;2023-06-10T14:40:25;6.72;;;4.57;;
68886;SDS011;55925;51.764;6.402;2023-06-10T14:42:53;9.68;;;5.35;;
68886;SDS011;55925;51.764;6.402;2023-06-10T14:45:19;7.53;;;4.95;;
68886;SDS011;55925;51.764;6.402;2023-06-10T14:47:45;9.23;;;5.28;;
68886;SDS011;55925;51.764;6.402;2023-06-10T14:50:12;8.05;;;4.80;;
68886;SDS011;55925;51.764;6.402;2023-06-10T14:52:38;8.43;;;5.22;;
68886;SDS011;55925;51.764;6.402;2023-06-10T14:55:05;7.07;;;4.80;;
68886;SDS011;55925;51.764;6.402;2023-06-10T14:57:31;7.57;;;4.40;;
68886;SDS011;55925;51.764;6.402;2023-06-10T14:59:57;9.00;;;5.20;;
68886;SDS011;55925;51.764;6.402;2023-06-10T15:02:23;8.23;;;5.50;;